CheckWX is a tool to help pilots better visualize weather data.  It is not intended as a substitute for an official pre-flight weather briefing.

00:41:39 UTC

KJVY METAR
Clark Regional Airport
Jeffersonville, Indiana, USA
Current

27 mins ago

KJVY 100015Z AUTO 00000KT 10SM CLR 23/22 A2988 RMK AO2 P0001 T02330222
Observed
Jul-10 @ 00:15 UTC
Visibility
10 SM
Flight Rules
VFR
Cloud Levels
  • Clear skies
Temperature
23°C / 73°F
Dewpoint
22°C / 72°F
Humidity
94%
Altimeter
29.88" Hg
Pressure
1011.82 hPa
Current Rain
0.01"
Previous

1 hour ago

KJVY 092335Z AUTO 00000KT 10SM CLR 24/22 A2988 RMK AO2 P0005 T02400222
Observed
Jul-9 @ 23:35 UTC
Visibility
10 SM
Flight Rules
VFR
Cloud Levels
  • Clear skies
Temperature
24°C / 75°F
Dewpoint
22°C / 72°F
Humidity
89%
Altimeter
29.88" Hg
Pressure
1011.82 hPa
Current Rain
0.05"
Previous

2 hours ago

KJVY 092235Z AUTO 00000KT 10SM -RA CLR 23/22 A2986 RMK AO2 P0010 T02330218
Observed
Jul-9 @ 22:35 UTC
Visibility
10 SM
Flight Rules
VFR
Conditions
Light Rain
Cloud Levels
  • Clear skies
Temperature
23°C / 73°F
Dewpoint
22°C / 72°F
Humidity
94%
Altimeter
29.86" Hg
Pressure
1011.22 hPa
Current Rain
0.1"